createdAt,value
2022-09-27T00:01:37.128Z,1.50
2022-09-27T00:03:28.980Z,2.22
2022-09-27T00:05:19.863Z,2.40
2022-09-27T00:07:11.946Z,2.17
2022-09-27T00:09:02.471Z,1.75
2022-09-27T00:10:59.235Z,1.92
2022-09-27T00:12:50.065Z,2.33
2022-09-27T00:14:40.374Z,2.10
2022-09-27T00:16:32.086Z,2.63
2022-09-27T00:18:22.731Z,2.20
2022-09-27T00:20:13.453Z,2.35
2022-09-27T00:22:04.225Z,2.83
2022-09-27T00:23:55.918Z,2.17
2022-09-27T00:25:55.414Z,2.80
2022-09-27T00:27:45.978Z,2.47
2022-09-27T00:29:36.432Z,2.53
2022-09-27T00:31:28.787Z,2.85
2022-09-27T00:33:19.188Z,3.15
2022-09-27T00:35:09.855Z,3.05
2022-09-27T00:37:00.226Z,2.88
2022-09-27T00:38:50.644Z,2.72
2022-09-27T00:40:42.406Z,2.55
2022-09-27T00:42:33.001Z,3.15
2022-09-27T00:44:58.490Z,3.25
2022-09-27T00:46:54.009Z,3.33
2022-09-27T00:48:45.094Z,3.60
2022-09-27T00:50:38.458Z,2.72
2022-09-27T00:52:32.115Z,3.15
2022-09-27T00:54:24.426Z,3.30
2022-09-27T00:58:07.641Z,2.42
2022-09-27T01:00:00.718Z,3.03
2022-09-27T01:01:51.624Z,2.63
2022-09-27T01:03:45.848Z,2.78
2022-09-27T01:05:36.831Z,3.25
2022-09-27T01:07:27.056Z,3.50
2022-09-27T01:09:17.621Z,3.20
2022-09-27T01:11:18.234Z,2.97
2022-09-27T01:13:14.049Z,2.60
2022-09-27T01:15:11.187Z,3.42
2022-09-27T01:17:08.480Z,2.75
2022-09-27T01:19:09.773Z,3.22
2022-09-27T01:21:25.915Z,2.47
2022-09-27T01:23:34.105Z,3.15
2022-09-27T01:25:44.685Z,2.58
2022-09-27T01:28:09.790Z,2.28
2022-09-27T01:30:21.262Z,1.70
2022-09-27T01:32:17.587Z,2.25
2022-09-27T01:34:13.624Z,2.30
2022-09-27T01:36:12.171Z,2.28
2022-09-27T01:38:09.548Z,2.53
2022-09-27T01:40:04.922Z,1.80
2022-09-27T01:42:01.643Z,1.70
2022-09-27T01:43:55.533Z,2.20
2022-09-27T01:45:51.604Z,2.13
2022-09-27T01:47:45.588Z,2.03
2022-09-27T01:49:41.329Z,1.88
2022-09-27T01:51:35.456Z,2.03
2022-09-27T01:53:29.507Z,1.73
2022-09-27T01:55:22.786Z,2.67
2022-09-27T01:57:18.719Z,2.40
2022-09-27T01:59:12.870Z,2.05
2022-09-27T02:01:05.943Z,1.58
2022-09-27T02:02:58.975Z,1.92
2022-09-27T02:04:50.487Z,1.90
2022-09-27T02:06:43.098Z,2.17
2022-09-27T02:08:37.947Z,2.50
2022-09-27T02:10:31.540Z,2.30
2022-09-27T02:12:26.328Z,2.40
2022-09-27T02:14:20.287Z,2.58
2022-09-27T02:16:20.759Z,2.80
2022-09-27T02:18:15.576Z,1.88
2022-09-27T02:20:12.821Z,2.60
2022-09-27T02:22:13.294Z,2.78
2022-09-27T02:24:05.447Z,2.60
2022-09-27T02:27:52.862Z,1.60
2022-09-27T02:29:47.253Z,1.88
2022-09-27T02:31:38.923Z,1.92
2022-09-27T02:33:33.091Z,1.77
2022-09-27T02:35:27.770Z,1.55
2022-09-27T02:37:18.398Z,1.38
2022-09-27T02:39:09.261Z,1.75
2022-09-27T02:40:59.755Z,1.77
2022-09-27T02:42:51.142Z,1.70
2022-09-27T02:44:42.191Z,1.65
2022-09-27T02:46:56.140Z,1.50
2022-09-27T02:48:55.981Z,2.03
2022-09-27T02:51:11.829Z,1.80
2022-09-27T02:53:06.640Z,1.75
2022-09-27T02:55:02.991Z,1.70
2022-09-27T02:57:02.186Z,1.42
2022-09-27T02:58:58.442Z,1.83
2022-09-27T03:00:54.192Z,1.25
2022-09-27T03:02:53.416Z,1.60
2022-09-27T03:04:47.113Z,2.08
2022-09-27T03:06:39.896Z,2.13
2022-09-27T03:08:30.832Z,1.30
2022-09-27T03:10:18.477Z,2.28
2022-09-27T03:12:08.986Z,1.50
2022-09-27T03:14:08.714Z,1.98
2022-09-27T03:16:01.753Z,2.40
2022-09-27T03:17:53.950Z,1.75
2022-09-27T03:19:44.529Z,2.38
2022-09-27T03:21:35.875Z,2.15
2022-09-27T03:23:26.399Z,2.65
2022-09-27T03:25:17.013Z,1.70
2022-09-27T03:27:07.986Z,2.42
2022-09-27T03:28:58.432Z,2.10
2022-09-27T03:30:48.921Z,2.00
2022-09-27T03:32:44.104Z,2.03
2022-09-27T03:34:36.032Z,1.90
2022-09-27T03:36:26.454Z,1.75
2022-09-27T03:38:16.747Z,3.50
2022-09-27T03:40:08.577Z,2.47
2022-09-27T03:41:59.290Z,1.90
2022-09-27T03:43:49.879Z,1.50
2022-09-27T03:45:40.268Z,1.75
2022-09-27T03:47:30.559Z,2.35
2022-09-27T03:49:20.970Z,2.22
2022-09-27T03:51:13.283Z,1.35
2022-09-27T03:53:03.709Z,1.98
2022-09-27T03:54:57.384Z,2.70
2022-09-27T03:56:50.617Z,1.40
2022-09-27T03:58:41.381Z,1.38
2022-09-27T04:00:31.724Z,1.80
2022-09-27T04:02:22.358Z,2.03
2022-09-27T04:04:13.064Z,3.20
2022-09-27T04:06:03.869Z,1.45
2022-09-27T04:07:56.288Z,1.20
2022-09-27T04:09:46.625Z,1.40
2022-09-27T04:11:36.958Z,1.88
2022-09-27T04:13:27.234Z,1.67
2022-09-27T04:15:17.680Z,1.58
2022-09-27T04:17:08.219Z,2.28
2022-09-27T04:18:58.778Z,1.70
2022-09-27T04:20:49.215Z,1.90
2022-09-27T04:22:40.254Z,1.80
2022-09-27T04:24:32.346Z,1.40
2022-09-27T04:26:22.943Z,1.90
2022-09-27T04:28:13.367Z,1.92
2022-09-27T04:30:04.962Z,1.83
2022-09-27T04:31:55.298Z,1.75
2022-09-27T04:33:45.620Z,1.75
2022-09-27T04:35:35.931Z,1.98
2022-09-27T04:37:27.234Z,1.55
2022-09-27T04:39:17.850Z,1.77
2022-09-27T04:41:10.070Z,1.67
2022-09-27T04:43:00.464Z,1.83
2022-09-27T04:44:50.911Z,1.33
2022-09-27T04:46:41.457Z,1.60
2022-09-27T04:48:32.216Z,1.30
2022-09-27T04:50:22.892Z,1.60
2022-09-27T04:52:13.267Z,1.65
2022-09-27T04:54:03.675Z,2.53
2022-09-27T04:55:54.540Z,2.80
2022-09-27T04:57:47.170Z,1.63
2022-09-27T04:59:37.938Z,2.35
2022-09-27T05:01:28.714Z,2.38
2022-09-27T05:03:19.548Z,1.98
2022-09-27T05:05:10.192Z,2.50
2022-09-27T05:07:00.827Z,2.83
2022-09-27T05:08:51.655Z,2.47
2022-09-27T05:10:42.191Z,2.45
2022-09-27T05:12:32.842Z,2.78
2022-09-27T05:16:20.000Z,1.95
2022-09-27T05:18:10.198Z,1.55
2022-09-27T05:20:00.779Z,1.48
2022-09-27T05:21:51.390Z,1.60
2022-09-27T05:23:44.714Z,1.08
2022-09-27T05:25:38.289Z,1.30
2022-09-27T05:27:29.130Z,1.63
2022-09-27T05:29:19.724Z,1.52
2022-09-27T05:31:11.903Z,1.90
2022-09-27T05:33:02.186Z,1.63
2022-09-27T05:34:52.565Z,2.42
2022-09-27T05:36:42.826Z,1.85
2022-09-27T05:38:33.200Z,2.05
2022-09-27T05:40:40.299Z,1.60
2022-09-27T05:42:32.145Z,1.90
2022-09-27T05:44:22.540Z,1.45
2022-09-27T05:46:14.315Z,1.67
2022-09-27T05:48:05.036Z,1.10
2022-09-27T05:49:55.525Z,2.10
2022-09-27T05:51:46.090Z,1.98
2022-09-27T05:53:36.581Z,1.70
2022-09-27T05:55:27.001Z,2.05
2022-09-27T05:57:17.664Z,1.95
2022-09-27T05:59:08.330Z,1.80
2022-09-27T06:00:58.976Z,1.60
2022-09-27T06:02:55.286Z,1.60
2022-09-27T06:04:45.820Z,1.70
2022-09-27T06:06:37.043Z,1.73
2022-09-27T06:08:27.279Z,1.77
2022-09-27T06:10:18.155Z,2.13
2022-09-27T06:12:09.054Z,2.90
2022-09-27T06:13:59.389Z,2.45
2022-09-27T06:15:49.683Z,3.17
2022-09-27T06:17:40.114Z,1.98
2022-09-27T06:19:31.870Z,2.42
2022-09-27T06:21:22.702Z,2.25
2022-09-27T06:23:17.582Z,2.05
2022-09-27T06:25:08.881Z,2.38
2022-09-27T06:26:59.062Z,2.28
2022-09-27T06:28:49.266Z,2.30
2022-09-27T06:30:40.990Z,3.05
2022-09-27T06:32:31.690Z,2.28
2022-09-27T06:34:22.141Z,2.67
2022-09-27T06:36:14.229Z,2.90
2022-09-27T06:38:05.584Z,3.65
2022-09-27T06:39:56.515Z,2.85
2022-09-27T06:41:47.190Z,2.45
2022-09-27T06:43:37.888Z,3.38
2022-09-27T06:45:28.158Z,2.72
2022-09-27T06:47:18.523Z,3.30
2022-09-27T06:49:09.107Z,2.60
2022-09-27T06:50:59.678Z,2.70
2022-09-27T06:52:51.761Z,2.70
2022-09-27T06:54:42.197Z,2.50
2022-09-27T06:56:33.243Z,3.03
2022-09-27T06:58:23.955Z,2.30
2022-09-27T07:00:14.795Z,2.53
2022-09-27T07:02:05.780Z,3.38
2022-09-27T07:03:56.544Z,4.68
2022-09-27T07:05:55.098Z,4.70
2022-09-27T07:07:46.127Z,2.40
2022-09-27T07:09:38.514Z,2.75
2022-09-27T07:11:29.129Z,2.28
2022-09-27T07:13:19.692Z,2.17
2022-09-27T07:15:10.428Z,1.92
2022-09-27T07:17:00.946Z,1.88
2022-09-27T07:18:51.663Z,1.70
2022-09-27T07:20:42.213Z,1.80
2022-09-27T07:22:33.227Z,1.40
2022-09-27T07:24:23.766Z,1.92
2022-09-27T07:26:15.860Z,2.00
2022-09-27T07:29:57.418Z,2.22
2022-09-27T07:31:47.808Z,2.10
2022-09-27T07:33:42.518Z,1.88
2022-09-27T07:35:33.435Z,2.17
2022-09-27T07:37:23.966Z,2.45
2022-09-27T07:39:14.673Z,2.30
2022-09-27T07:41:06.611Z,2.03
2022-09-27T07:42:58.851Z,1.80
2022-09-27T07:44:49.442Z,1.83
2022-09-27T07:46:39.880Z,1.40
2022-09-27T07:48:30.552Z,1.60
2022-09-27T07:50:21.392Z,1.85
2022-09-27T07:52:12.164Z,2.40
2022-09-27T07:54:07.895Z,2.45
2022-09-27T07:55:59.302Z,2.03
2022-09-27T07:57:49.970Z,2.10
2022-09-27T07:59:41.854Z,1.58
2022-09-27T08:01:34.102Z,1.80
2022-09-27T08:03:25.113Z,1.88
2022-09-27T08:05:15.817Z,1.60
2022-09-27T08:07:06.314Z,1.70
2022-09-27T08:08:56.952Z,2.20
2022-09-27T08:10:47.403Z,2.25
2022-09-27T08:12:39.434Z,2.50
2022-09-27T08:14:30.101Z,2.15
2022-09-27T08:16:22.067Z,1.95
2022-09-27T08:18:12.333Z,1.85
2022-09-27T08:20:02.788Z,1.65
2022-09-27T08:21:58.070Z,1.20
2022-09-27T08:23:49.385Z,1.67
2022-09-27T08:25:40.127Z,1.70
2022-09-27T08:27:30.478Z,1.30
2022-09-27T08:29:20.862Z,2.15
2022-09-27T08:31:11.281Z,1.65
2022-09-27T08:33:03.150Z,1.83
2022-09-27T08:34:54.055Z,1.67
2022-09-27T08:36:44.499Z,1.40
2022-09-27T08:38:35.323Z,1.63
2022-09-27T08:40:31.199Z,2.05
2022-09-27T08:42:30.461Z,2.15
2022-09-27T08:44:28.387Z,1.80
2022-09-27T08:46:27.334Z,1.95
2022-09-27T08:48:19.204Z,1.83
2022-09-27T08:50:18.498Z,1.50
2022-09-27T08:52:15.865Z,1.42
2022-09-27T08:54:08.628Z,1.40
2022-09-27T08:56:00.144Z,1.50
2022-09-27T08:57:55.015Z,1.67
2022-09-27T08:59:49.032Z,1.55
2022-09-27T09:01:39.685Z,1.35
2022-09-27T09:03:33.288Z,2.13
2022-09-27T09:05:28.793Z,1.40
2022-09-27T09:07:37.248Z,1.73
2022-09-27T09:09:36.681Z,1.90
2022-09-27T09:11:36.431Z,2.28
2022-09-27T09:13:40.510Z,2.40
2022-09-27T09:15:35.913Z,1.60
2022-09-27T09:17:38.004Z,2.25
2022-09-27T09:19:47.733Z,1.83
2022-09-27T09:21:45.924Z,2.55
2022-09-27T09:24:08.668Z,2.10
2022-09-27T09:28:03.228Z,1.90
2022-09-27T09:30:05.306Z,2.20
2022-09-27T09:32:00.516Z,1.98
2022-09-27T09:33:54.309Z,2.45
2022-09-27T09:35:49.713Z,2.05
2022-09-27T09:37:43.025Z,1.90
2022-09-27T09:39:36.214Z,2.40
2022-09-27T09:41:29.963Z,1.67
2022-09-27T09:43:23.641Z,2.13
2022-09-27T09:45:17.429Z,2.30
2022-09-27T09:47:14.283Z,2.70
2022-09-27T09:49:10.524Z,1.50
2022-09-27T09:51:06.604Z,1.85
2022-09-27T09:53:01.111Z,1.42
2022-09-27T09:54:53.720Z,1.60
2022-09-27T09:56:48.151Z,1.73
2022-09-27T09:58:43.511Z,1.27
2022-09-27T10:00:34.296Z,2.10
2022-09-27T10:02:30.373Z,1.60
2022-09-27T10:04:23.137Z,1.83
2022-09-27T10:08:07.988Z,1.60
2022-09-27T10:10:00.811Z,2.22
2022-09-27T10:11:51.522Z,1.98
2022-09-27T10:13:41.830Z,1.50
2022-09-27T10:15:33.507Z,1.60
2022-09-27T10:17:27.268Z,1.98
2022-09-27T10:19:21.395Z,2.00
2022-09-27T10:21:15.737Z,1.58
2022-09-27T10:23:13.572Z,2.65
2022-09-27T10:25:05.607Z,1.83
2022-09-27T10:27:00.178Z,1.58
2022-09-27T10:28:50.702Z,1.60
2022-09-27T10:30:41.089Z,2.63
2022-09-27T10:32:33.350Z,3.50
2022-09-27T10:36:25.204Z,2.50
2022-09-27T10:38:22.980Z,2.20
2022-09-27T10:40:29.540Z,2.40
2022-09-27T10:42:21.832Z,2.72
2022-09-27T10:46:22.585Z,1.63
2022-09-27T10:48:19.624Z,2.17
2022-09-27T10:50:38.723Z,1.83
2022-09-27T10:52:28.061Z,2.33
2022-09-27T10:54:20.954Z,2.55
2022-09-27T10:56:21.741Z,2.38
2022-09-27T10:58:18.859Z,1.80
2022-09-27T11:00:21.973Z,2.08
2022-09-27T11:02:19.943Z,2.08
2022-09-27T11:04:19.239Z,1.95
2022-09-27T11:06:24.726Z,2.50
2022-09-27T11:08:28.843Z,2.08
2022-09-27T11:10:24.999Z,1.85
2022-09-27T11:12:16.436Z,1.90
2022-09-27T11:14:18.299Z,1.63
2022-09-27T11:16:22.701Z,1.70
2022-09-27T11:18:20.245Z,2.00
2022-09-27T11:20:23.344Z,1.50
2022-09-27T11:22:28.700Z,1.63
2022-09-27T11:24:27.882Z,1.80
2022-09-27T11:26:31.935Z,2.33
2022-09-27T11:28:31.733Z,1.80
2022-09-27T11:30:23.990Z,1.85
2022-09-27T11:32:23.325Z,2.63
2022-09-27T11:34:30.262Z,1.52
2022-09-27T11:36:31.678Z,1.63
2022-09-27T11:38:48.378Z,1.60
2022-09-27T11:40:54.846Z,2.17
2022-09-27T11:43:06.867Z,2.30
2022-09-27T11:45:34.130Z,2.33
2022-09-27T11:47:28.831Z,2.08
2022-09-27T11:49:42.018Z,1.90
2022-09-27T11:51:43.215Z,1.88
2022-09-27T11:53:43.183Z,2.42
2022-09-27T11:55:45.267Z,1.73
2022-09-27T11:57:39.241Z,2.03
2022-09-27T11:59:43.498Z,1.98
2022-09-27T12:01:40.689Z,1.75
2022-09-27T12:04:04.711Z,2.13
2022-09-27T12:06:08.012Z,2.00
2022-09-27T12:08:10.892Z,2.47
2022-09-27T12:10:05.063Z,1.77
2022-09-27T12:12:01.102Z,3.00
2022-09-27T12:13:57.197Z,1.83
2022-09-27T12:15:48.262Z,2.60
2022-09-27T12:17:41.685Z,2.38
2022-09-27T12:19:35.398Z,2.50
2022-09-27T12:21:26.791Z,2.15
2022-09-27T12:23:21.535Z,2.63
2022-09-27T12:25:20.297Z,2.00
2022-09-27T12:27:15.397Z,2.17
2022-09-27T12:29:12.240Z,1.75
2022-09-27T12:31:27.987Z,2.00
2022-09-27T12:33:23.357Z,1.33
2022-09-27T12:35:18.418Z,1.60
2022-09-27T12:37:13.658Z,1.65
2022-09-27T12:39:09.670Z,1.08
2022-09-27T12:41:00.974Z,1.58
2022-09-27T12:42:55.833Z,1.17
2022-09-27T12:44:50.780Z,1.30
2022-09-27T12:46:50.654Z,1.65
2022-09-27T12:48:45.550Z,1.23
2022-09-27T12:50:38.306Z,1.25
2022-09-27T12:52:33.486Z,2.08
2022-09-27T12:54:38.315Z,1.65
2022-09-27T12:56:39.054Z,2.08
2022-09-27T12:58:59.961Z,1.65
2022-09-27T13:00:55.877Z,2.00
2022-09-27T13:03:26.077Z,1.60
2022-09-27T13:05:34.367Z,1.58
2022-09-27T13:07:34.751Z,1.77
2022-09-27T13:09:34.189Z,1.70
2022-09-27T13:11:28.396Z,1.90
2022-09-27T13:13:21.654Z,1.80
2022-09-27T13:15:16.821Z,2.08
2022-09-27T13:17:32.456Z,2.33
2022-09-27T13:19:41.575Z,2.00
2022-09-27T13:21:54.326Z,1.85
2022-09-27T13:23:54.065Z,2.33
2022-09-27T13:25:54.323Z,1.70
2022-09-27T13:27:45.838Z,2.10
2022-09-27T13:29:36.399Z,2.28
2022-09-27T13:32:00.199Z,2.25
2022-09-27T13:33:53.130Z,2.00
2022-09-27T13:36:21.532Z,2.45
2022-09-27T13:38:21.950Z,2.25
2022-09-27T13:40:27.632Z,1.92
2022-09-27T13:42:27.448Z,2.03
2022-09-27T13:44:20.525Z,1.80
2022-09-27T13:46:16.329Z,1.80
2022-09-27T13:48:16.194Z,2.28
2022-09-27T13:50:20.184Z,2.25
2022-09-27T13:52:19.805Z,3.17
2022-09-27T13:54:46.397Z,3.83
2022-09-27T13:56:52.791Z,2.72
2022-09-27T13:58:50.535Z,2.30
2022-09-27T14:00:43.598Z,2.08
2022-09-27T14:02:39.531Z,2.05
2022-09-27T14:04:32.842Z,2.13
2022-09-27T14:06:26.246Z,1.90
2022-09-27T14:08:23.575Z,2.45
2022-09-27T14:10:15.584Z,2.30
2022-09-27T14:12:11.518Z,2.08
2022-09-27T14:14:04.263Z,1.73
2022-09-27T14:15:59.066Z,2.00
2022-09-27T14:17:49.760Z,2.88
2022-09-27T14:19:41.447Z,1.85
2022-09-27T14:21:36.831Z,2.43
2022-09-27T14:23:27.370Z,2.20
2022-09-27T14:25:18.626Z,1.95
2022-09-27T14:27:15.039Z,2.58
2022-09-27T14:29:16.520Z,2.15
2022-09-27T14:31:11.447Z,1.50
2022-09-27T14:33:02.141Z,2.13
2022-09-27T14:35:07.766Z,2.47
2022-09-27T14:36:59.665Z,2.20
2022-09-27T14:38:50.340Z,1.90
2022-09-27T14:40:42.485Z,1.95
2022-09-27T14:44:28.056Z,2.60
2022-09-27T14:46:26.265Z,2.72
2022-09-27T14:48:21.891Z,2.25
2022-09-27T14:50:18.907Z,2.40
2022-09-27T14:52:17.474Z,2.20
2022-09-27T14:54:20.968Z,2.33
2022-09-27T14:56:15.378Z,2.40
2022-09-27T14:58:06.241Z,2.20
2022-09-27T14:59:56.897Z,2.42
2022-09-27T15:01:49.249Z,2.55
2022-09-27T15:03:44.192Z,2.67
2022-09-27T15:05:35.605Z,2.55
2022-09-27T15:07:27.949Z,2.85
2022-09-27T15:09:18.858Z,2.60
2022-09-27T15:11:09.683Z,3.10
2022-09-27T15:13:01.650Z,3.58
2022-09-27T15:14:54.497Z,3.00
2022-09-27T15:16:45.657Z,3.17
2022-09-27T15:18:42.080Z,2.90
2022-09-27T15:20:35.688Z,3.35
2022-09-27T15:22:36.635Z,3.03
2022-09-27T15:24:38.281Z,3.15
2022-09-27T15:26:36.675Z,2.97
2022-09-27T15:28:37.110Z,2.75
2022-09-27T15:30:30.217Z,2.70
2022-09-27T15:32:22.864Z,2.63
2022-09-27T15:34:17.932Z,2.80
2022-09-27T15:36:10.320Z,2.88
2022-09-27T15:38:29.485Z,2.85
2022-09-27T15:41:02.386Z,2.75
2022-09-27T15:42:56.540Z,2.83
2022-09-27T15:44:48.446Z,2.42
2022-09-27T15:46:41.686Z,2.90
2022-09-27T15:48:33.339Z,3.40
2022-09-27T15:50:35.737Z,2.80
2022-09-27T15:52:40.476Z,3.10
2022-09-27T15:54:32.775Z,3.33
2022-09-27T15:56:23.472Z,3.65
2022-09-27T15:58:15.971Z,3.50
2022-09-27T16:00:07.715Z,3.25
2022-09-27T16:02:04.203Z,2.95
2022-09-27T16:03:58.849Z,3.55
2022-09-27T16:05:49.535Z,3.95
2022-09-27T16:07:40.136Z,4.70
2022-09-27T16:09:33.871Z,4.50
2022-09-27T16:11:26.847Z,4.97
2022-09-27T16:13:17.689Z,4.40
2022-09-27T16:15:09.279Z,4.40
2022-09-27T16:17:00.746Z,4.25
2022-09-27T16:18:54.625Z,4.07
2022-09-27T16:20:45.478Z,4.35
2022-09-27T16:22:36.285Z,5.05
2022-09-27T16:24:35.359Z,3.90
2022-09-27T16:26:28.101Z,4.47
2022-09-27T16:28:18.762Z,4.47
2022-09-27T16:30:10.916Z,4.40
2022-09-27T16:32:01.950Z,4.20
2022-09-27T16:33:53.093Z,4.10
2022-09-27T16:35:44.273Z,3.45
2022-09-27T16:37:35.225Z,4.18
2022-09-27T16:39:26.057Z,3.30
2022-09-27T16:41:20.601Z,3.95
2022-09-27T16:43:15.592Z,3.30
2022-09-27T16:45:11.237Z,3.42
2022-09-27T16:47:04.667Z,3.03
2022-09-27T16:48:58.031Z,4.03
2022-09-27T16:50:53.927Z,3.50
2022-09-27T16:52:49.156Z,3.67
2022-09-27T16:54:42.963Z,3.60
2022-09-27T16:56:39.449Z,4.10
2022-09-27T16:58:31.962Z,3.53
2022-09-27T17:00:22.994Z,3.10
2022-09-27T17:02:13.894Z,2.90
2022-09-27T17:04:05.126Z,3.70
2022-09-27T17:06:01.221Z,3.35
2022-09-27T17:07:52.577Z,3.13
2022-09-27T17:09:43.791Z,3.83
2022-09-27T17:11:34.867Z,3.63
2022-09-27T17:13:27.990Z,3.90
2022-09-27T17:15:26.700Z,3.95
2022-09-27T17:17:28.366Z,3.78
2022-09-27T17:19:21.259Z,4.13
2022-09-27T17:21:12.474Z,4.03
2022-09-27T17:23:06.612Z,4.80
2022-09-27T17:24:57.963Z,5.05
2022-09-27T17:26:50.761Z,4.90
2022-09-27T17:28:43.453Z,5.05
2022-09-27T17:30:38.142Z,4.82
2022-09-27T17:32:31.212Z,3.97
2022-09-27T17:34:22.219Z,4.22
2022-09-27T17:36:22.600Z,5.22
2022-09-27T17:38:13.315Z,6.03
2022-09-27T17:40:04.894Z,5.32
2022-09-27T17:41:55.962Z,5.43
2022-09-27T17:43:46.761Z,4.43
2022-09-27T17:45:41.478Z,4.75
2022-09-27T17:47:32.486Z,3.80
2022-09-27T17:49:22.854Z,4.30
2022-09-27T17:51:14.086Z,4.97
2022-09-27T17:53:04.803Z,4.55
2022-09-27T17:54:55.066Z,4.60
2022-09-27T17:56:46.792Z,4.85
2022-09-27T17:58:37.521Z,4.70
2022-09-27T18:00:27.891Z,4.72
2022-09-27T18:02:19.640Z,5.40
2022-09-27T18:04:11.567Z,5.15
2022-09-27T18:06:06.352Z,5.50
2022-09-27T18:07:56.810Z,5.60
2022-09-27T18:09:47.244Z,4.68
2022-09-27T18:11:38.874Z,3.80
2022-09-27T18:13:29.445Z,3.53
2022-09-27T18:15:19.824Z,3.55
2022-09-27T18:17:10.413Z,3.70
2022-09-27T18:19:03.445Z,6.60
2022-09-27T18:20:54.410Z,6.22
2022-09-27T18:22:45.357Z,5.10
2022-09-27T18:24:35.975Z,3.95
2022-09-27T18:26:27.757Z,3.55
2022-09-27T18:28:19.828Z,3.80
2022-09-27T18:30:11.200Z,4.97
2022-09-27T18:32:02.348Z,5.00
2022-09-27T18:33:55.814Z,4.30
2022-09-27T18:35:48.096Z,2.88
2022-09-27T18:37:38.747Z,3.67
2022-09-27T18:39:33.058Z,4.18
2022-09-27T18:41:25.245Z,3.85
2022-09-27T18:43:16.224Z,4.95
2022-09-27T18:45:07.826Z,3.00
2022-09-27T18:46:58.576Z,2.67
2022-09-27T18:48:51.625Z,3.65
2022-09-27T18:50:42.368Z,4.45
2022-09-27T18:52:35.348Z,4.47
2022-09-27T18:54:27.199Z,4.03
2022-09-27T18:56:18.261Z,3.05
2022-09-27T18:58:09.212Z,3.75
2022-09-27T19:00:03.603Z,3.80
2022-09-27T19:01:54.387Z,4.15
2022-09-27T19:03:45.318Z,5.97
2022-09-27T19:05:39.044Z,3.40
2022-09-27T19:07:29.900Z,3.65
2022-09-27T19:09:22.113Z,4.28
2022-09-27T19:11:16.606Z,4.35
2022-09-27T19:13:08.382Z,5.05
2022-09-27T19:14:59.025Z,4.93
2022-09-27T19:16:50.082Z,5.88
2022-09-27T19:18:40.655Z,6.05
2022-09-27T19:20:33.254Z,6.22
2022-09-27T19:22:23.886Z,4.75
2022-09-27T19:24:14.817Z,4.80
2022-09-27T19:26:08.578Z,5.05
2022-09-27T19:28:00.043Z,5.18
2022-09-27T19:29:51.313Z,5.50
2022-09-27T19:31:43.315Z,5.30
2022-09-27T19:33:39.252Z,5.07
2022-09-27T19:35:29.955Z,5.60
2022-09-27T19:37:20.374Z,5.50
2022-09-27T19:39:11.252Z,5.45
2022-09-27T19:41:05.178Z,5.15
2022-09-27T19:42:57.801Z,5.97
2022-09-27T19:44:48.882Z,6.03
2022-09-27T19:46:42.736Z,5.85
2022-09-27T19:48:35.094Z,5.85
2022-09-27T19:50:26.013Z,6.47
2022-09-27T19:52:21.111Z,5.85
2022-09-27T19:54:14.354Z,5.78
2022-09-27T19:56:06.600Z,5.90
2022-09-27T19:58:00.308Z,5.65
2022-09-27T19:59:51.070Z,6.18
2022-09-27T20:01:41.998Z,6.13
2022-09-27T20:03:33.560Z,6.55
2022-09-27T20:05:24.769Z,6.50
2022-09-27T20:07:15.655Z,6.30
2022-09-27T20:09:19.047Z,7.38
2022-09-27T20:11:11.546Z,6.35
2022-09-27T20:13:03.619Z,6.32
2022-09-27T20:14:56.409Z,5.05
2022-09-27T20:16:46.903Z,5.25
2022-09-27T20:18:39.760Z,5.55
2022-09-27T20:20:31.867Z,6.63
2022-09-27T20:22:22.384Z,6.00
2022-09-27T20:24:13.131Z,7.50
2022-09-27T20:26:08.139Z,7.00
2022-09-27T20:27:58.865Z,6.95
2022-09-27T20:29:51.194Z,6.55
2022-09-27T20:31:56.973Z,6.75
2022-09-27T20:33:52.425Z,6.20
2022-09-27T20:35:50.240Z,5.07
2022-09-27T20:37:41.015Z,4.60
2022-09-27T20:39:34.655Z,4.80
2022-09-27T20:41:25.879Z,2.78
2022-09-27T20:43:18.810Z,2.80
2022-09-27T20:45:12.322Z,2.28
2022-09-27T20:47:04.665Z,2.53
2022-09-27T20:48:57.757Z,2.13
2022-09-27T20:50:48.316Z,2.10
2022-09-27T20:52:38.955Z,2.30
2022-09-27T20:54:31.437Z,2.25
2022-09-27T20:58:15.879Z,2.33
2022-09-27T21:00:07.957Z,2.72
2022-09-27T21:01:59.815Z,2.35
2022-09-27T21:03:53.496Z,2.38
2022-09-27T21:05:44.058Z,2.15
2022-09-27T21:07:34.946Z,2.20
2022-09-27T21:09:27.775Z,2.22
2022-09-27T21:11:18.990Z,1.63
2022-09-27T21:13:09.567Z,1.40
2022-09-27T21:15:02.922Z,1.27
2022-09-27T21:16:53.647Z,1.05
2022-09-27T21:18:47.986Z,0.90
2022-09-27T21:20:38.495Z,1.65
2022-09-27T21:22:29.474Z,1.25
2022-09-27T21:24:20.079Z,0.90
2022-09-27T21:26:12.086Z,1.38
2022-09-27T21:28:02.898Z,1.55
2022-09-27T21:29:53.883Z,1.38
2022-09-27T21:31:44.528Z,1.55
2022-09-27T21:33:36.002Z,1.40
2022-09-27T21:35:32.479Z,1.20
2022-09-27T21:37:23.625Z,1.40
2022-09-27T21:39:14.356Z,1.77
2022-09-27T21:41:07.648Z,1.63
2022-09-27T21:42:58.550Z,1.58
2022-09-27T21:44:49.396Z,2.10
2022-09-27T21:46:45.685Z,1.60
2022-09-27T21:48:37.942Z,1.60
2022-09-27T21:50:31.353Z,2.75
2022-09-27T21:52:21.818Z,2.72
2022-09-27T21:54:14.549Z,1.77
2022-09-27T21:56:09.161Z,1.95
2022-09-27T21:57:59.590Z,2.20
2022-09-27T21:59:51.852Z,2.22
2022-09-27T22:03:34.994Z,2.35
2022-09-27T22:05:25.442Z,1.90
2022-09-27T22:07:17.647Z,2.25
2022-09-27T22:09:12.907Z,2.50
2022-09-27T22:11:04.330Z,2.03
2022-09-27T22:12:54.896Z,2.17
2022-09-27T22:14:45.497Z,2.03
2022-09-27T22:16:36.443Z,1.55
2022-09-27T22:18:29.141Z,1.63
2022-09-27T22:20:19.645Z,1.75
2022-09-27T22:22:10.575Z,1.73
2022-09-27T22:24:08.101Z,1.83
2022-09-27T22:26:00.028Z,2.17
2022-09-27T22:27:50.697Z,1.70
2022-09-27T22:29:41.100Z,1.77
2022-09-27T22:31:33.161Z,1.73
2022-09-27T22:33:23.878Z,2.72
2022-09-27T22:35:14.577Z,2.08
2022-09-27T22:37:05.272Z,2.20
2022-09-27T22:38:56.030Z,2.00
2022-09-27T22:40:55.203Z,1.45
2022-09-27T22:42:45.916Z,1.88
2022-09-27T22:44:36.526Z,2.20
2022-09-27T22:46:28.649Z,2.17
2022-09-27T22:48:19.583Z,2.40
2022-09-27T22:50:12.630Z,2.38
2022-09-27T22:52:03.178Z,2.60
2022-09-27T22:53:53.471Z,2.65
2022-09-27T22:55:44.051Z,2.10
2022-09-27T22:57:36.205Z,2.40
2022-09-27T22:59:27.476Z,2.35
2022-09-27T23:01:20.209Z,2.35
2022-09-27T23:03:10.889Z,2.55
2022-09-27T23:05:01.334Z,2.88
2022-09-27T23:06:51.994Z,3.65
2022-09-27T23:08:43.923Z,3.15
2022-09-27T23:10:34.784Z,3.03
2022-09-27T23:12:25.426Z,3.95
2022-09-27T23:14:17.421Z,3.28
2022-09-27T23:16:11.960Z,2.90
2022-09-27T23:18:02.782Z,3.20
2022-09-27T23:19:53.066Z,2.85
2022-09-27T23:21:43.760Z,2.90
2022-09-27T23:23:34.689Z,3.75
2022-09-27T23:25:24.963Z,3.35
2022-09-27T23:27:15.370Z,3.30
2022-09-27T23:29:06.438Z,2.97
2022-09-27T23:31:09.267Z,2.80
2022-09-27T23:33:06.153Z,2.40
2022-09-27T23:34:57.533Z,2.60
2022-09-27T23:36:48.227Z,2.63
2022-09-27T23:38:38.934Z,2.65
2022-09-27T23:40:29.891Z,2.70
2022-09-27T23:42:20.968Z,2.90
2022-09-27T23:44:11.601Z,2.50
2022-09-27T23:46:02.674Z,2.97
2022-09-27T23:47:57.543Z,2.83
2022-09-27T23:49:48.049Z,2.75
2022-09-27T23:51:38.791Z,3.63
2022-09-27T23:53:29.829Z,3.22
2022-09-27T23:55:20.449Z,3.70
2022-09-27T23:57:11.254Z,3.72
2022-09-27T23:59:04.561Z,4.28
